sensor_id;sensor_type;location;lat;lon;timestamp;temperature;humidity
22974;DHT22;11653;50.848;4.584;2024-01-30T00:01:15;11.00;99.90
22974;DHT22;11653;50.848;4.584;2024-01-30T00:03:41;11.00;99.90
22974;DHT22;11653;50.848;4.584;2024-01-30T00:06:08;11.00;99.90
22974;DHT22;11653;50.848;4.584;2024-01-30T00:08:34;11.10;99.90
22974;DHT22;11653;50.848;4.584;2024-01-30T00:11:00;11.10;99.90
22974;DHT22;11653;50.848;4.584;2024-01-30T00:13:26;11.10;99.90
22974;DHT22;11653;50.848;4.584;2024-01-30T00:15:52;11.20;99.90
22974;DHT22;11653;50.848;4.584;2024-01-30T00:18:18;11.30;99.90
22974;DHT22;11653;50.848;4.584;2024-01-30T00:20:44;11.30;99.90
22974;DHT22;11653;50.848;4.584;2024-01-30T00:23:10;11.30;99.90
22974;DHT22;11653;50.848;4.584;2024-01-30T00:25:35;11.40;99.90
22974;DHT22;11653;50.848;4.584;2024-01-30T00:28:01;11.30;99.90
22974;DHT22;11653;50.848;4.584;2024-01-30T00:30:27;11.30;99.90
22974;DHT22;11653;50.848;4.584;2024-01-30T00:32:53;11.40;99.90
22974;DHT22;11653;50.848;4.584;2024-01-30T00:35:19;11.40;99.90
22974;DHT22;11653;50.848;4.584;2024-01-30T00:37:45;11.30;99.90
22974;DHT22;11653;50.848;4.584;2024-01-30T00:40:11;11.30;99.90
22974;DHT22;11653;50.848;4.584;2024-01-30T00:42:42;11.30;99.90
22974;DHT22;11653;50.848;4.584;2024-01-30T00:45:15;11.30;99.90
22974;DHT22;11653;50.848;4.584;2024-01-30T00:47:41;11.40;99.90
22974;DHT22;11653;50.848;4.584;2024-01-30T00:50:07;11.40;99.90
22974;DHT22;11653;50.848;4.584;2024-01-30T00:52:33;11.40;99.90
22974;DHT22;11653;50.848;4.584;2024-01-30T00:54:59;11.50;99.90
22974;DHT22;11653;50.848;4.584;2024-01-30T00:57:25;11.50;99.90
22974;DHT22;11653;50.848;4.584;2024-01-30T00:59:51;11.40;99.90
22974;DHT22;11653;50.848;4.584;2024-01-30T01:02:16;11.50;99.90
22974;DHT22;11653;50.848;4.584;2024-01-30T01:04:45;11.50;99.90
22974;DHT22;11653;50.848;4.584;2024-01-30T01:07:11;11.50;99.90
22974;DHT22;11653;50.848;4.584;2024-01-30T01:09:37;11.40;99.90
22974;DHT22;11653;50.848;4.584;2024-01-30T01:12:03;11.40;99.90
22974;DHT22;11653;50.848;4.584;2024-01-30T01:14:29;11.40;99.90
22974;DHT22;11653;50.848;4.584;2024-01-30T01:16:55;11.40;99.90
22974;DHT22;11653;50.848;4.584;2024-01-30T01:19:21;11.50;99.90
22974;DHT22;11653;50.848;4.584;2024-01-30T01:21:47;11.50;99.90
22974;DHT22;11653;50.848;4.584;2024-01-30T01:24:13;11.60;99.90
22974;DHT22;11653;50.848;4.584;2024-01-30T01:26:39;11.60;99.90
22974;DHT22;11653;50.848;4.584;2024-01-30T01:29:06;11.60;99.90
22974;DHT22;11653;50.848;4.584;2024-01-30T01:31:37;11.60;99.90
22974;DHT22;11653;50.848;4.584;2024-01-30T01:34:12;11.60;99.90
22974;DHT22;11653;50.848;4.584;2024-01-30T01:36:38;11.70;99.90
22974;DHT22;11653;50.848;4.584;2024-01-30T01:39:04;11.70;99.90
22974;DHT22;11653;50.848;4.584;2024-01-30T01:41:31;11.70;99.90
22974;DHT22;11653;50.848;4.584;2024-01-30T01:43:57;11.70;99.90
22974;DHT22;11653;50.848;4.584;2024-01-30T01:46:23;11.70;99.90
22974;DHT22;11653;50.848;4.584;2024-01-30T01:48:49;11.70;99.90
22974;DHT22;11653;50.848;4.584;2024-01-30T01:51:15;11.90;99.90
22974;DHT22;11653;50.848;4.584;2024-01-30T01:53:41;11.80;99.90
22974;DHT22;11653;50.848;4.584;2024-01-30T01:56:07;11.80;99.90
22974;DHT22;11653;50.848;4.584;2024-01-30T01:58:33;11.70;99.90
22974;DHT22;11653;50.848;4.584;2024-01-30T02:00:59;11.70;99.90
22974;DHT22;11653;50.848;4.584;2024-01-30T02:03:25;11.70;99.90
22974;DHT22;11653;50.848;4.584;2024-01-30T02:05:51;11.70;99.90
22974;DHT22;11653;50.848;4.584;2024-01-30T02:08:17;11.70;99.90
22974;DHT22;11653;50.848;4.584;2024-01-30T02:10:42;11.60;99.90
22974;DHT22;11653;50.848;4.584;2024-01-30T02:13:08;11.70;99.90
22974;DHT22;11653;50.848;4.584;2024-01-30T02:15:34;11.70;99.90
22974;DHT22;11653;50.848;4.584;2024-01-30T02:17:59;11.70;99.90
22974;DHT22;11653;50.848;4.584;2024-01-30T02:20:26;11.60;99.90
22974;DHT22;11653;50.848;4.584;2024-01-30T02:22:54;11.70;99.90
22974;DHT22;11653;50.848;4.584;2024-01-30T02:25:38;11.70;99.90
22974;DHT22;11653;50.848;4.584;2024-01-30T02:28:04;11.60;99.90
22974;DHT22;11653;50.848;4.584;2024-01-30T02:30:30;11.60;99.90
22974;DHT22;11653;50.848;4.584;2024-01-30T02:32:55;11.60;99.90
22974;DHT22;11653;50.848;4.584;2024-01-30T02:35:21;11.60;99.90
22974;DHT22;11653;50.848;4.584;2024-01-30T02:37:46;11.60;99.90
22974;DHT22;11653;50.848;4.584;2024-01-30T02:40:12;11.50;99.90
22974;DHT22;11653;50.848;4.584;2024-01-30T02:42:39;11.50;99.90
22974;DHT22;11653;50.848;4.584;2024-01-30T02:45:05;11.50;99.90
22974;DHT22;11653;50.848;4.584;2024-01-30T02:47:31;11.50;99.90
22974;DHT22;11653;50.848;4.584;2024-01-30T02:49:56;11.40;99.90
22974;DHT22;11653;50.848;4.584;2024-01-30T02:52:22;11.60;99.90
22974;DHT22;11653;50.848;4.584;2024-01-30T02:54:48;11.50;99.90
22974;DHT22;11653;50.848;4.584;2024-01-30T02:57:13;11.60;99.90
22974;DHT22;11653;50.848;4.584;2024-01-30T02:59:39;11.70;99.90
22974;DHT22;11653;50.848;4.584;2024-01-30T03:02:04;11.60;99.90
22974;DHT22;11653;50.848;4.584;2024-01-30T03:04:30;11.70;99.90
22974;DHT22;11653;50.848;4.584;2024-01-30T03:06:56;11.70;99.90
22974;DHT22;11653;50.848;4.584;2024-01-30T03:09:22;11.60;99.90
22974;DHT22;11653;50.848;4.584;2024-01-30T03:11:47;11.60;99.90
22974;DHT22;11653;50.848;4.584;2024-01-30T03:14:13;11.60;99.90
22974;DHT22;11653;50.848;4.584;2024-01-30T03:16:39;11.60;99.90
22974;DHT22;11653;50.848;4.584;2024-01-30T03:19:06;11.70;99.90
22974;DHT22;11653;50.848;4.584;2024-01-30T03:21:33;11.60;99.90
22974;DHT22;11653;50.848;4.584;2024-01-30T03:23:58;11.60;99.90
22974;DHT22;11653;50.848;4.584;2024-01-30T03:26:25;11.60;99.90
22974;DHT22;11653;50.848;4.584;2024-01-30T03:28:50;11.60;99.90
22974;DHT22;11653;50.848;4.584;2024-01-30T03:31:16;11.60;99.90
22974;DHT22;11653;50.848;4.584;2024-01-30T03:33:42;11.50;99.90
22974;DHT22;11653;50.848;4.584;2024-01-30T03:36:09;11.60;99.90
22974;DHT22;11653;50.848;4.584;2024-01-30T03:38:34;11.60;99.90
22974;DHT22;11653;50.848;4.584;2024-01-30T03:41:00;11.60;99.90
22974;DHT22;11653;50.848;4.584;2024-01-30T03:43:26;11.60;99.90
22974;DHT22;11653;50.848;4.584;2024-01-30T03:45:52;11.60;99.90
22974;DHT22;11653;50.848;4.584;2024-01-30T03:48:18;11.60;99.90
22974;DHT22;11653;50.848;4.584;2024-01-30T03:50:44;11.70;99.90
22974;DHT22;11653;50.848;4.584;2024-01-30T03:53:10;11.80;99.90
22974;DHT22;11653;50.848;4.584;2024-01-30T03:55:35;11.80;99.90
22974;DHT22;11653;50.848;4.584;2024-01-30T03:58:01;11.80;99.90
22974;DHT22;11653;50.848;4.584;2024-01-30T04:00:27;11.80;99.90
22974;DHT22;11653;50.848;4.584;2024-01-30T04:02:52;11.70;99.90
22974;DHT22;11653;50.848;4.584;2024-01-30T04:05:18;11.70;99.90
22974;DHT22;11653;50.848;4.584;2024-01-30T04:07:43;11.70;99.90
22974;DHT22;11653;50.848;4.584;2024-01-30T04:10:10;11.70;99.90
22974;DHT22;11653;50.848;4.584;2024-01-30T04:12:36;11.70;99.90
22974;DHT22;11653;50.848;4.584;2024-01-30T04:15:02;11.80;99.90
22974;DHT22;11653;50.848;4.584;2024-01-30T04:17:29;11.90;99.90
22974;DHT22;11653;50.848;4.584;2024-01-30T04:19:54;11.90;99.90
22974;DHT22;11653;50.848;4.584;2024-01-30T04:22:20;12.00;99.90
22974;DHT22;11653;50.848;4.584;2024-01-30T04:24:46;11.90;99.90
22974;DHT22;11653;50.848;4.584;2024-01-30T04:27:12;12.00;99.90
22974;DHT22;11653;50.848;4.584;2024-01-30T04:29:38;12.00;99.90
22974;DHT22;11653;50.848;4.584;2024-01-30T04:32:04;12.00;99.90
22974;DHT22;11653;50.848;4.584;2024-01-30T04:34:30;12.00;99.90
22974;DHT22;11653;50.848;4.584;2024-01-30T04:36:55;11.90;99.90
22974;DHT22;11653;50.848;4.584;2024-01-30T04:39:21;11.90;99.90
22974;DHT22;11653;50.848;4.584;2024-01-30T04:41:47;11.90;99.90
22974;DHT22;11653;50.848;4.584;2024-01-30T04:44:13;12.00;99.90
22974;DHT22;11653;50.848;4.584;2024-01-30T04:46:39;12.00;99.90
22974;DHT22;11653;50.848;4.584;2024-01-30T04:49:05;12.00;99.90
22974;DHT22;11653;50.848;4.584;2024-01-30T04:51:33;12.00;99.90
22974;DHT22;11653;50.848;4.584;2024-01-30T04:53:58;12.00;99.90
22974;DHT22;11653;50.848;4.584;2024-01-30T04:56:24;11.90;99.90
22974;DHT22;11653;50.848;4.584;2024-01-30T04:58:50;11.90;99.90
22974;DHT22;11653;50.848;4.584;2024-01-30T05:01:16;11.90;99.90
22974;DHT22;11653;50.848;4.584;2024-01-30T05:03:42;11.90;99.90
22974;DHT22;11653;50.848;4.584;2024-01-30T05:06:08;11.90;99.90
22974;DHT22;11653;50.848;4.584;2024-01-30T05:08:33;11.90;99.90
22974;DHT22;11653;50.848;4.584;2024-01-30T05:11:02;12.00;99.90
22974;DHT22;11653;50.848;4.584;2024-01-30T05:13:30;12.00;99.90
22974;DHT22;11653;50.848;4.584;2024-01-30T05:15:56;11.90;99.90
22974;DHT22;11653;50.848;4.584;2024-01-30T05:18:21;12.00;99.90
22974;DHT22;11653;50.848;4.584;2024-01-30T05:20:47;12.10;99.90
22974;DHT22;11653;50.848;4.584;2024-01-30T05:23:12;12.00;99.90
22974;DHT22;11653;50.848;4.584;2024-01-30T05:25:38;12.10;99.90
22974;DHT22;11653;50.848;4.584;2024-01-30T05:28:04;12.10;99.90
22974;DHT22;11653;50.848;4.584;2024-01-30T05:30:30;12.20;99.90
22974;DHT22;11653;50.848;4.584;2024-01-30T05:32:56;12.20;99.90
22974;DHT22;11653;50.848;4.584;2024-01-30T05:35:21;12.10;99.90
22974;DHT22;11653;50.848;4.584;2024-01-30T05:37:48;12.00;99.90
22974;DHT22;11653;50.848;4.584;2024-01-30T05:40:14;12.00;99.90
22974;DHT22;11653;50.848;4.584;2024-01-30T05:42:40;12.00;99.90
22974;DHT22;11653;50.848;4.584;2024-01-30T05:45:06;12.00;99.90
22974;DHT22;11653;50.848;4.584;2024-01-30T05:47:32;12.10;99.90
22974;DHT22;11653;50.848;4.584;2024-01-30T05:49:57;12.10;99.90
22974;DHT22;11653;50.848;4.584;2024-01-30T05:52:23;12.10;99.90
22974;DHT22;11653;50.848;4.584;2024-01-30T05:54:49;12.20;99.90
22974;DHT22;11653;50.848;4.584;2024-01-30T05:57:14;12.20;99.90
22974;DHT22;11653;50.848;4.584;2024-01-30T05:59:40;12.20;99.90
22974;DHT22;11653;50.848;4.584;2024-01-30T06:02:06;12.10;99.90
22974;DHT22;11653;50.848;4.584;2024-01-30T06:04:31;12.10;99.90
22974;DHT22;11653;50.848;4.584;2024-01-30T06:06:57;12.10;99.90
22974;DHT22;11653;50.848;4.584;2024-01-30T06:09:23;12.10;99.90
22974;DHT22;11653;50.848;4.584;2024-01-30T06:11:48;12.10;99.90
22974;DHT22;11653;50.848;4.584;2024-01-30T06:14:14;12.00;99.90
22974;DHT22;11653;50.848;4.584;2024-01-30T06:16:39;12.10;99.90
22974;DHT22;11653;50.848;4.584;2024-01-30T06:19:05;12.20;99.90
22974;DHT22;11653;50.848;4.584;2024-01-30T06:21:31;12.20;99.90
22974;DHT22;11653;50.848;4.584;2024-01-30T06:23:57;12.20;99.90
22974;DHT22;11653;50.848;4.584;2024-01-30T06:26:32;12.20;99.90
22974;DHT22;11653;50.848;4.584;2024-01-30T06:28:57;12.10;99.90
22974;DHT22;11653;50.848;4.584;2024-01-30T06:31:23;12.10;99.90
22974;DHT22;11653;50.848;4.584;2024-01-30T06:33:49;12.10;99.90
22974;DHT22;11653;50.848;4.584;2024-01-30T06:36:15;12.20;99.90
22974;DHT22;11653;50.848;4.584;2024-01-30T06:38:41;12.10;99.90
22974;DHT22;11653;50.848;4.584;2024-01-30T06:41:07;12.10;99.90
22974;DHT22;11653;50.848;4.584;2024-01-30T06:43:32;12.10;99.90
22974;DHT22;11653;50.848;4.584;2024-01-30T06:45:58;12.00;99.90
22974;DHT22;11653;50.848;4.584;2024-01-30T06:48:25;12.10;99.90
22974;DHT22;11653;50.848;4.584;2024-01-30T06:50:53;12.10;99.90
22974;DHT22;11653;50.848;4.584;2024-01-30T06:53:19;12.10;99.90
22974;DHT22;11653;50.848;4.584;2024-01-30T06:55:45;12.10;99.90
22974;DHT22;11653;50.848;4.584;2024-01-30T06:58:11;12.10;99.90
22974;DHT22;11653;50.848;4.584;2024-01-30T07:00:37;12.00;99.90
22974;DHT22;11653;50.848;4.584;2024-01-30T07:03:03;12.10;99.90
22974;DHT22;11653;50.848;4.584;2024-01-30T07:05:28;12.10;99.90
22974;DHT22;11653;50.848;4.584;2024-01-30T07:07:54;12.10;99.90
22974;DHT22;11653;50.848;4.584;2024-01-30T07:10:20;12.20;99.90
22974;DHT22;11653;50.848;4.584;2024-01-30T07:12:45;12.20;99.90
22974;DHT22;11653;50.848;4.584;2024-01-30T07:15:11;12.20;99.90
22974;DHT22;11653;50.848;4.584;2024-01-30T07:17:37;12.20;99.90
22974;DHT22;11653;50.848;4.584;2024-01-30T07:20:04;12.20;99.90
22974;DHT22;11653;50.848;4.584;2024-01-30T07:22:30;12.20;99.90
22974;DHT22;11653;50.848;4.584;2024-01-30T07:24:56;12.20;99.90
22974;DHT22;11653;50.848;4.584;2024-01-30T07:27:22;12.20;99.90
22974;DHT22;11653;50.848;4.584;2024-01-30T07:29:48;12.10;99.90
22974;DHT22;11653;50.848;4.584;2024-01-30T07:32:14;12.00;99.90
22974;DHT22;11653;50.848;4.584;2024-01-30T07:34:39;12.10;99.90
22974;DHT22;11653;50.848;4.584;2024-01-30T07:37:05;12.20;99.90
22974;DHT22;11653;50.848;4.584;2024-01-30T07:39:33;12.20;99.90
22974;DHT22;11653;50.848;4.584;2024-01-30T07:41:59;12.00;99.90
22974;DHT22;11653;50.848;4.584;2024-01-30T07:44:27;12.00;99.90
22974;DHT22;11653;50.848;4.584;2024-01-30T07:46:53;12.00;99.90
22974;DHT22;11653;50.848;4.584;2024-01-30T07:49:20;12.00;99.90
22974;DHT22;11653;50.848;4.584;2024-01-30T07:51:45;12.10;99.90
22974;DHT22;11653;50.848;4.584;2024-01-30T07:54:11;12.20;99.90
22974;DHT22;11653;50.848;4.584;2024-01-30T07:56:37;12.30;99.90
22974;DHT22;11653;50.848;4.584;2024-01-30T07:59:03;12.30;99.90
22974;DHT22;11653;50.848;4.584;2024-01-30T08:01:29;12.40;99.90
22974;DHT22;11653;50.848;4.584;2024-01-30T08:03:54;12.50;99.90
22974;DHT22;11653;50.848;4.584;2024-01-30T08:06:20;12.50;99.90
22974;DHT22;11653;50.848;4.584;2024-01-30T08:08:46;12.50;99.90
22974;DHT22;11653;50.848;4.584;2024-01-30T08:11:12;12.60;99.90
22974;DHT22;11653;50.848;4.584;2024-01-30T08:13:38;12.60;99.90
22974;DHT22;11653;50.848;4.584;2024-01-30T08:16:04;12.70;99.90
22974;DHT22;11653;50.848;4.584;2024-01-30T08:18:30;12.70;99.90
22974;DHT22;11653;50.848;4.584;2024-01-30T08:20:56;12.80;99.90
22974;DHT22;11653;50.848;4.584;2024-01-30T08:23:21;12.80;99.90
22974;DHT22;11653;50.848;4.584;2024-01-30T08:25:47;12.90;99.90
22974;DHT22;11653;50.848;4.584;2024-01-30T08:28:13;12.90;99.90
22974;DHT22;11653;50.848;4.584;2024-01-30T08:30:38;12.90;99.90
22974;DHT22;11653;50.848;4.584;2024-01-30T08:33:05;12.90;99.90
22974;DHT22;11653;50.848;4.584;2024-01-30T08:35:31;12.90;99.90
22974;DHT22;11653;50.848;4.584;2024-01-30T08:37:59;13.00;99.90
22974;DHT22;11653;50.848;4.584;2024-01-30T08:40:24;13.00;99.90
22974;DHT22;11653;50.848;4.584;2024-01-30T08:42:50;13.10;99.90
22974;DHT22;11653;50.848;4.584;2024-01-30T08:45:16;13.10;99.90
22974;DHT22;11653;50.848;4.584;2024-01-30T08:47:42;13.10;99.90
22974;DHT22;11653;50.848;4.584;2024-01-30T08:50:08;13.10;99.90
22974;DHT22;11653;50.848;4.584;2024-01-30T08:52:33;13.20;99.90
22974;DHT22;11653;50.848;4.584;2024-01-30T08:55:00;13.20;99.90
22974;DHT22;11653;50.848;4.584;2024-01-30T08:57:25;13.40;99.90
22974;DHT22;11653;50.848;4.584;2024-01-30T08:59:54;13.40;99.90
22974;DHT22;11653;50.848;4.584;2024-01-30T09:02:20;13.50;99.90
22974;DHT22;11653;50.848;4.584;2024-01-30T09:04:46;13.50;99.90
22974;DHT22;11653;50.848;4.584;2024-01-30T09:07:11;13.60;99.90
22974;DHT22;11653;50.848;4.584;2024-01-30T09:09:39;13.70;99.90
22974;DHT22;11653;50.848;4.584;2024-01-30T09:12:06;13.90;99.90
22974;DHT22;11653;50.848;4.584;2024-01-30T09:14:35;13.80;99.90
22974;DHT22;11653;50.848;4.584;2024-01-30T09:17:01;13.80;99.90
22974;DHT22;11653;50.848;4.584;2024-01-30T09:19:28;13.90;99.90
22974;DHT22;11653;50.848;4.584;2024-01-30T09:21:54;13.80;99.90
22974;DHT22;11653;50.848;4.584;2024-01-30T09:24:20;13.70;99.90
22974;DHT22;11653;50.848;4.584;2024-01-30T09:26:45;13.70;99.90
22974;DHT22;11653;50.848;4.584;2024-01-30T09:29:11;13.70;99.90
22974;DHT22;11653;50.848;4.584;2024-01-30T09:31:36;13.70;99.90
22974;DHT22;11653;50.848;4.584;2024-01-30T09:34:03;13.70;99.90
22974;DHT22;11653;50.848;4.584;2024-01-30T09:36:28;13.70;99.90
22974;DHT22;11653;50.848;4.584;2024-01-30T09:38:54;13.60;99.90
22974;DHT22;11653;50.848;4.584;2024-01-30T09:41:20;13.60;99.90
22974;DHT22;11653;50.848;4.584;2024-01-30T09:43:50;13.60;99.90
22974;DHT22;11653;50.848;4.584;2024-01-30T09:46:17;13.60;99.90
22974;DHT22;11653;50.848;4.584;2024-01-30T09:48:46;13.70;99.90
22974;DHT22;11653;50.848;4.584;2024-01-30T09:51:14;13.70;99.90
22974;DHT22;11653;50.848;4.584;2024-01-30T09:53:41;13.70;99.90
22974;DHT22;11653;50.848;4.584;2024-01-30T09:56:07;13.60;99.90
22974;DHT22;11653;50.848;4.584;2024-01-30T09:58:33;13.60;99.90
22974;DHT22;11653;50.848;4.584;2024-01-30T10:00:58;13.60;99.90
22974;DHT22;11653;50.848;4.584;2024-01-30T10:03:24;13.60;99.90
22974;DHT22;11653;50.848;4.584;2024-01-30T10:05:51;13.60;99.90
22974;DHT22;11653;50.848;4.584;2024-01-30T10:08:20;13.40;99.90
22974;DHT22;11653;50.848;4.584;2024-01-30T10:10:49;13.30;99.90
22974;DHT22;11653;50.848;4.584;2024-01-30T10:13:16;13.30;99.90
22974;DHT22;11653;50.848;4.584;2024-01-30T10:15:42;13.20;99.90
22974;DHT22;11653;50.848;4.584;2024-01-30T10:18:10;13.20;99.90
22974;DHT22;11653;50.848;4.584;2024-01-30T10:20:37;13.10;99.90
22974;DHT22;11653;50.848;4.584;2024-01-30T10:23:03;13.20;99.90
22974;DHT22;11653;50.848;4.584;2024-01-30T10:25:30;13.10;99.90
22974;DHT22;11653;50.848;4.584;2024-01-30T10:27:56;13.00;99.90
22974;DHT22;11653;50.848;4.584;2024-01-30T10:30:23;13.10;99.90
22974;DHT22;11653;50.848;4.584;2024-01-30T10:32:49;13.20;99.90
22974;DHT22;11653;50.848;4.584;2024-01-30T10:35:15;13.30;99.90
22974;DHT22;11653;50.848;4.584;2024-01-30T10:37:44;13.40;99.90
22974;DHT22;11653;50.848;4.584;2024-01-30T10:40:13;13.30;99.90
22974;DHT22;11653;50.848;4.584;2024-01-30T10:42:43;13.30;99.90
22974;DHT22;11653;50.848;4.584;2024-01-30T10:45:10;13.30;99.90
22974;DHT22;11653;50.848;4.584;2024-01-30T10:47:49;13.30;99.90
22974;DHT22;11653;50.848;4.584;2024-01-30T10:50:15;13.20;99.90
22974;DHT22;11653;50.848;4.584;2024-01-30T10:52:42;13.10;99.90
22974;DHT22;11653;50.848;4.584;2024-01-30T10:55:10;13.10;99.90
22974;DHT22;11653;50.848;4.584;2024-01-30T10:57:36;13.00;99.90
22974;DHT22;11653;50.848;4.584;2024-01-30T11:00:07;12.80;99.90
22974;DHT22;11653;50.848;4.584;2024-01-30T11:02:40;12.70;99.90
22974;DHT22;11653;50.848;4.584;2024-01-30T11:05:06;12.60;99.90
22974;DHT22;11653;50.848;4.584;2024-01-30T11:07:32;12.70;99.90
22974;DHT22;11653;50.848;4.584;2024-01-30T11:12:24;12.70;99.90
22974;DHT22;11653;50.848;4.584;2024-01-30T11:15:07;12.70;99.90
22974;DHT22;11653;50.848;4.584;2024-01-30T11:20:16;12.90;99.90
22974;DHT22;11653;50.848;4.584;2024-01-30T11:22:49;12.90;99.90
22974;DHT22;11653;50.848;4.584;2024-01-30T11:25:17;12.80;99.90
22974;DHT22;11653;50.848;4.584;2024-01-30T11:27:44;12.70;99.90
22974;DHT22;11653;50.848;4.584;2024-01-30T11:30:11;12.40;99.90
22974;DHT22;11653;50.848;4.584;2024-01-30T11:32:46;12.40;99.90
22974;DHT22;11653;50.848;4.584;2024-01-30T11:35:11;12.20;99.90
22974;DHT22;11653;50.848;4.584;2024-01-30T11:37:37;12.20;99.90
22974;DHT22;11653;50.848;4.584;2024-01-30T11:40:07;12.00;99.90
22974;DHT22;11653;50.848;4.584;2024-01-30T11:42:34;11.90;99.90
22974;DHT22;11653;50.848;4.584;2024-01-30T11:45:05;11.90;99.90
22974;DHT22;11653;50.848;4.584;2024-01-30T11:47:31;12.00;99.90
22974;DHT22;11653;50.848;4.584;2024-01-30T11:49:57;12.10;99.90
22974;DHT22;11653;50.848;4.584;2024-01-30T11:52:23;12.20;99.90
22974;DHT22;11653;50.848;4.584;2024-01-30T11:54:48;12.20;99.90
22974;DHT22;11653;50.848;4.584;2024-01-30T11:57:14;12.10;99.90
22974;DHT22;11653;50.848;4.584;2024-01-30T11:59:40;11.90;99.90
22974;DHT22;11653;50.848;4.584;2024-01-30T12:02:05;11.80;99.90
22974;DHT22;11653;50.848;4.584;2024-01-30T12:04:31;11.80;99.90
22974;DHT22;11653;50.848;4.584;2024-01-30T12:06:57;11.90;99.90
22974;DHT22;11653;50.848;4.584;2024-01-30T12:09:22;11.80;99.90
22974;DHT22;11653;50.848;4.584;2024-01-30T12:11:52;11.80;99.90
22974;DHT22;11653;50.848;4.584;2024-01-30T12:14:18;11.60;99.90
22974;DHT22;11653;50.848;4.584;2024-01-30T12:16:48;11.60;99.90
22974;DHT22;11653;50.848;4.584;2024-01-30T12:19:22;11.60;99.90
22974;DHT22;11653;50.848;4.584;2024-01-30T12:21:54;11.50;99.90
22974;DHT22;11653;50.848;4.584;2024-01-30T12:24:20;11.50;99.90
22974;DHT22;11653;50.848;4.584;2024-01-30T12:26:46;11.70;99.90
22974;DHT22;11653;50.848;4.584;2024-01-30T12:29:14;11.80;99.90
22974;DHT22;11653;50.848;4.584;2024-01-30T12:31:42;11.90;99.90
22974;DHT22;11653;50.848;4.584;2024-01-30T12:34:07;12.30;99.90
22974;DHT22;11653;50.848;4.584;2024-01-30T12:36:34;12.50;99.90
22974;DHT22;11653;50.848;4.584;2024-01-30T12:39:00;12.50;99.90
22974;DHT22;11653;50.848;4.584;2024-01-30T12:41:26;12.40;99.90
22974;DHT22;11653;50.848;4.584;2024-01-30T12:43:57;12.10;99.90
22974;DHT22;11653;50.848;4.584;2024-01-30T12:46:30;12.00;99.90
22974;DHT22;11653;50.848;4.584;2024-01-30T12:48:55;11.90;99.90
22974;DHT22;11653;50.848;4.584;2024-01-30T12:51:21;11.80;99.90
22974;DHT22;11653;50.848;4.584;2024-01-30T12:53:50;11.70;99.90
22974;DHT22;11653;50.848;4.584;2024-01-30T12:56:16;11.80;99.90
22974;DHT22;11653;50.848;4.584;2024-01-30T12:58:41;12.10;99.90
22974;DHT22;11653;50.848;4.584;2024-01-30T13:01:08;12.30;99.90
22974;DHT22;11653;50.848;4.584;2024-01-30T13:03:34;12.40;99.90
22974;DHT22;11653;50.848;4.584;2024-01-30T13:06:00;12.40;99.90
22974;DHT22;11653;50.848;4.584;2024-01-30T13:08:26;12.50;99.90
22974;DHT22;11653;50.848;4.584;2024-01-30T13:10:51;12.60;99.90
22974;DHT22;11653;50.848;4.584;2024-01-30T13:13:17;12.70;99.90
22974;DHT22;11653;50.848;4.584;2024-01-30T13:15:43;12.90;99.90
22974;DHT22;11653;50.848;4.584;2024-01-30T13:18:08;13.00;99.90
22974;DHT22;11653;50.848;4.584;2024-01-30T13:20:34;12.80;99.90
22974;DHT22;11653;50.848;4.584;2024-01-30T13:23:00;12.60;99.90
22974;DHT22;11653;50.848;4.584;2024-01-30T13:25:25;12.30;99.90
22974;DHT22;11653;50.848;4.584;2024-01-30T13:27:51;12.10;99.90
22974;DHT22;11653;50.848;4.584;2024-01-30T13:30:17;11.90;99.90
22974;DHT22;11653;50.848;4.584;2024-01-30T13:32:42;11.90;99.90
22974;DHT22;11653;50.848;4.584;2024-01-30T13:35:09;12.00;99.90
22974;DHT22;11653;50.848;4.584;2024-01-30T13:37:35;12.20;99.90
22974;DHT22;11653;50.848;4.584;2024-01-30T13:40:02;12.30;99.90
22974;DHT22;11653;50.848;4.584;2024-01-30T13:42:28;12.30;99.90
22974;DHT22;11653;50.848;4.584;2024-01-30T13:44:54;12.30;99.90
22974;DHT22;11653;50.848;4.584;2024-01-30T13:47:20;12.20;99.90
22974;DHT22;11653;50.848;4.584;2024-01-30T13:49:47;12.20;99.90
22974;DHT22;11653;50.848;4.584;2024-01-30T13:52:13;12.00;99.90
22974;DHT22;11653;50.848;4.584;2024-01-30T13:54:38;12.00;99.90
22974;DHT22;11653;50.848;4.584;2024-01-30T13:57:04;12.00;99.90
22974;DHT22;11653;50.848;4.584;2024-01-30T13:59:30;12.10;99.90
22974;DHT22;11653;50.848;4.584;2024-01-30T14:01:56;11.90;99.90
22974;DHT22;11653;50.848;4.584;2024-01-30T14:04:22;11.80;99.90
22974;DHT22;11653;50.848;4.584;2024-01-30T14:06:47;11.90;99.90
22974;DHT22;11653;50.848;4.584;2024-01-30T14:09:13;11.90;99.90
22974;DHT22;11653;50.848;4.584;2024-01-30T14:11:41;11.80;99.90
22974;DHT22;11653;50.848;4.584;2024-01-30T14:14:07;11.90;99.90
22974;DHT22;11653;50.848;4.584;2024-01-30T14:16:35;11.90;99.90
22974;DHT22;11653;50.848;4.584;2024-01-30T14:19:01;11.80;99.90
22974;DHT22;11653;50.848;4.584;2024-01-30T14:21:27;11.70;99.90
22974;DHT22;11653;50.848;4.584;2024-01-30T14:23:52;11.70;99.90
22974;DHT22;11653;50.848;4.584;2024-01-30T14:26:18;11.50;99.90
22974;DHT22;11653;50.848;4.584;2024-01-30T14:28:44;11.50;99.90
22974;DHT22;11653;50.848;4.584;2024-01-30T14:31:11;11.60;99.90
22974;DHT22;11653;50.848;4.584;2024-01-30T14:33:37;11.60;99.90
22974;DHT22;11653;50.848;4.584;2024-01-30T14:36:03;11.60;99.90
22974;DHT22;11653;50.848;4.584;2024-01-30T14:38:29;11.60;99.90
22974;DHT22;11653;50.848;4.584;2024-01-30T14:40:54;11.60;99.90
22974;DHT22;11653;50.848;4.584;2024-01-30T14:43:20;11.60;99.90
22974;DHT22;11653;50.848;4.584;2024-01-30T14:45:46;11.50;99.90
22974;DHT22;11653;50.848;4.584;2024-01-30T14:48:15;11.40;99.90
22974;DHT22;11653;50.848;4.584;2024-01-30T14:50:40;11.30;99.90
22974;DHT22;11653;50.848;4.584;2024-01-30T14:53:06;11.30;99.90
22974;DHT22;11653;50.848;4.584;2024-01-30T14:55:32;11.10;99.90
22974;DHT22;11653;50.848;4.584;2024-01-30T14:57:58;11.10;99.90
22974;DHT22;11653;50.848;4.584;2024-01-30T15:00:25;11.00;99.90
22974;DHT22;11653;50.848;4.584;2024-01-30T15:02:50;11.00;99.90
22974;DHT22;11653;50.848;4.584;2024-01-30T15:05:16;11.10;99.90
22974;DHT22;11653;50.848;4.584;2024-01-30T15:07:42;11.20;99.90
22974;DHT22;11653;50.848;4.584;2024-01-30T15:10:08;11.30;99.90
22974;DHT22;11653;50.848;4.584;2024-01-30T15:12:35;11.20;99.90
22974;DHT22;11653;50.848;4.584;2024-01-30T15:15:01;11.30;99.90
22974;DHT22;11653;50.848;4.584;2024-01-30T15:17:27;11.30;99.90
22974;DHT22;11653;50.848;4.584;2024-01-30T15:19:52;11.30;99.90
22974;DHT22;11653;50.848;4.584;2024-01-30T15:22:18;11.20;99.90
22974;DHT22;11653;50.848;4.584;2024-01-30T15:24:44;11.10;99.90
22974;DHT22;11653;50.848;4.584;2024-01-30T15:27:09;11.00;99.90
22974;DHT22;11653;50.848;4.584;2024-01-30T15:29:35;10.90;99.90